Time;durP1;ratioP1;P1;durP2;ratioP2;P2;SDS_P1;SDS_P2;PMS_P1;PMS_P2;Temp;Humidity;BMP_temperature;BMP_pressure;BME280_temperature;BME280_humidity;BME280_pressure;Samples;Min_cycle;Max_cycle;Signal;HPM_P1;HPM_P2
2023/05/01 00:00:47;;;;;;;2.72;2.20;;;;;;;;;;5045513;28;20028;-67
2023/05/01 00:03:13;;;;;;;2.72;2.20;;;;;;;;;;5062934;28;20051;-66
2023/05/01 00:05:38;;;;;;;2.80;1.85;;;;;;;;;;5062961;28;20090;-62
2023/05/01 00:08:04;;;;;;;3.27;1.83;;;;;;;;;;5045857;28;20050;-62
2023/05/01 00:10:30;;;;;;;3.45;2.15;;;;;;;;;;5063277;28;20282;-68
2023/05/01 00:12:55;;;;;;;3.10;1.90;;;;;;;;;;5046406;28;20044;-68
2023/05/01 00:15:20;;;;;;;3.97;2.10;;;;;;;;;;5063025;28;20044;-69
2023/05/01 00:17:45;;;;;;;3.95;2.05;;;;;;;;;;5068685;28;20294;-64
2023/05/01 00:20:11;;;;;;;3.10;2.03;;;;;;;;;;5082671;28;20518;-67
2023/05/01 00:22:36;;;;;;;3.40;1.98;;;;;;;;;;5083098;28;20651;-66
2023/05/01 00:25:02;;;;;;;2.97;2.13;;;;;;;;;;5065678;28;20089;-65
2023/05/01 00:27:27;;;;;;;2.55;1.90;;;;;;;;;;5082831;28;20285;-62
2023/05/01 00:29:53;;;;;;;3.55;2.35;;;;;;;;;;5082667;28;20076;-67
2023/05/01 00:32:18;;;;;;;3.83;2.15;;;;;;;;;;5084088;28;20036;-69
2023/05/01 00:34:46;;;;;;;2.97;2.20;;;;;;;;;;5082747;28;20208;-64
2023/05/01 00:37:11;;;;;;;2.80;2.03;;;;;;;;;;5066325;28;20647;-63
2023/05/01 00:39:37;;;;;;;2.60;2.00;;;;;;;;;;5084403;28;20122;-66
2023/05/01 00:42:02;;;;;;;3.10;1.98;;;;;;;;;;5066035;28;20040;-67
2023/05/01 00:44:27;;;;;;;3.03;2.05;;;;;;;;;;5066146;28;20485;-62
2023/05/01 00:46:53;;;;;;;3.15;1.83;;;;;;;;;;5082478;28;20052;-68
2023/05/01 00:49:18;;;;;;;3.73;2.20;;;;;;;;;;5065148;28;20044;-67
2023/05/01 00:51:43;;;;;;;3.47;2.47;;;;;;;;;;5063662;28;20549;-68
2023/05/01 00:54:08;;;;;;;3.53;1.83;;;;;;;;;;5064310;28;20512;-59
2023/05/01 00:56:34;;;;;;;2.83;2.00;;;;;;;;;;5065542;28;20297;-67
2023/05/01 00:58:59;;;;;;;2.20;1.60;;;;;;;;;;5081438;28;20526;-67
2023/05/01 01:01:25;;;;;;;2.72;1.90;;;;;;;;;;5064507;28;20380;-68
2023/05/01 01:03:50;;;;;;;2.85;1.95;;;;;;;;;;5059563;28;20115;-65
2023/05/01 01:06:39;;;;;;;4.15;1.85;;;;;;;;;;5061196;28;20107;-65
2023/05/01 01:09:20;;;;;;;3.35;2.00;;;;;;;;;;5061087;28;20091;-68
2023/05/01 01:12:03;;;;;;;2.65;1.90;;;;;;;;;;5060872;28;20033;-67
2023/05/01 01:14:33;;;;;;;2.75;2.00;;;;;;;;;;5063601;28;20130;-62
2023/05/01 01:17:05;;;;;;;3.15;1.88;;;;;;;;;;5047044;28;20515;-64
2023/05/01 01:19:33;;;;;;;2.22;1.88;;;;;;;;;;5065627;28;20040;-68
2023/05/01 01:22:00;;;;;;;3.00;2.05;;;;;;;;;;5064148;28;20040;-62
2023/05/01 01:24:32;;;;;;;2.28;1.60;;;;;;;;;;5072779;28;20115;-67
2023/05/01 01:27:16;;;;;;;2.90;1.80;;;;;;;;;;5084228;28;20040;-61
2023/05/01 01:30:01;;;;;;;2.90;1.83;;;;;;;;;;5085819;28;20040;-65
2023/05/01 01:32:27;;;;;;;2.80;1.75;;;;;;;;;;5084231;28;20055;-66
2023/05/01 01:34:57;;;;;;;3.05;2.00;;;;;;;;;;5085523;28;20464;-67
2023/05/01 01:37:24;;;;;;;2.40;1.77;;;;;;;;;;5067014;28;20033;-63
2023/05/01 01:39:53;;;;;;;2.67;2.00;;;;;;;;;;5084339;28;20036;-67
2023/05/01 01:42:19;;;;;;;2.42;2.00;;;;;;;;;;5067592;28;20044;-60
2023/05/01 01:44:54;;;;;;;2.60;1.80;;;;;;;;;;5084444;28;20053;-64
2023/05/01 01:47:19;;;;;;;2.15;1.83;;;;;;;;;;5083654;28;20120;-67
2023/05/01 01:49:46;;;;;;;2.67;1.88;;;;;;;;;;5084431;28;20036;-65
2023/05/01 01:52:13;;;;;;;1.90;1.52;;;;;;;;;;5081063;28;20028;-71
2023/05/01 01:54:39;;;;;;;2.70;1.98;;;;;;;;;;5080563;28;20163;-68
2023/05/01 01:57:04;;;;;;;2.50;1.63;;;;;;;;;;5064624;28;20523;-60
2023/05/01 01:59:30;;;;;;;2.60;2.00;;;;;;;;;;5069662;28;20028;-67
2023/05/01 02:01:56;;;;;;;2.42;1.75;;;;;;;;;;5084063;28;20040;-67
2023/05/01 02:04:21;;;;;;;2.40;1.60;;;;;;;;;;5066877;28;20046;-65
2023/05/01 02:06:46;;;;;;;3.20;1.70;;;;;;;;;;5083893;28;20393;-71
2023/05/01 02:09:12;;;;;;;2.95;1.95;;;;;;;;;;5083325;28;20905;-66
2023/05/01 02:11:37;;;;;;;3.60;2.03;;;;;;;;;;5066355;28;20060;-66
2023/05/01 02:14:03;;;;;;;2.78;1.60;;;;;;;;;;5066574;28;20528;-64
2023/05/01 02:16:28;;;;;;;2.40;1.73;;;;;;;;;;5080336;28;20024;-67
2023/05/01 02:18:54;;;;;;;2.43;1.70;;;;;;;;;;5047836;28;20060;-63
2023/05/01 02:21:19;;;;;;;2.58;1.88;;;;;;;;;;5060067;28;20289;-69
2023/05/01 02:23:45;;;;;;;2.90;1.70;;;;;;;;;;5082814;28;20568;-64
2023/05/01 02:26:12;;;;;;;2.88;1.75;;;;;;;;;;5083789;28;20507;-60
2023/05/01 02:28:40;;;;;;;2.63;1.77;;;;;;;;;;5066318;28;20036;-64
2023/05/01 02:31:05;;;;;;;2.75;1.95;;;;;;;;;;5083417;28;20434;-67
2023/05/01 02:33:30;;;;;;;2.40;1.90;;;;;;;;;;5083186;28;20839;-61
2023/05/01 02:35:56;;;;;;;2.40;1.53;;;;;;;;;;5066623;28;20317;-67
2023/05/01 02:38:21;;;;;;;3.03;2.33;;;;;;;;;;5066030;28;20298;-63
2023/05/01 02:40:48;;;;;;;4.07;1.70;;;;;;;;;;5066458;28;20274;-67
2023/05/01 02:43:15;;;;;;;2.47;1.80;;;;;;;;;;5083080;28;20290;-68
2023/05/01 02:45:40;;;;;;;2.65;1.77;;;;;;;;;;5066397;28;20062;-68
2023/05/01 02:48:06;;;;;;;2.23;1.50;;;;;;;;;;5082705;28;20044;-66
2023/05/01 02:50:31;;;;;;;1.83;1.40;;;;;;;;;;5083298;28;20274;-70
2023/05/01 02:52:57;;;;;;;2.28;1.50;;;;;;;;;;5054585;28;20135;-63
2023/05/01 02:55:22;;;;;;;3.08;2.00;;;;;;;;;;5075584;28;20036;-62
2023/05/01 02:57:49;;;;;;;2.15;1.75;;;;;;;;;;5070259;28;20086;-62
2023/05/01 03:00:14;;;;;;;2.15;1.67;;;;;;;;;;5056073;28;20419;-67
2023/05/01 03:02:39;;;;;;;2.33;1.50;;;;;;;;;;5062930;28;20024;-68
2023/05/01 03:05:05;;;;;;;3.10;1.67;;;;;;;;;;5049471;28;20794;-65
2023/05/01 03:07:33;;;;;;;1.90;1.60;;;;;;;;;;5081464;28;20324;-69
2023/05/01 03:09:59;;;;;;;2.53;1.58;;;;;;;;;;5062460;28;20044;-65
2023/05/01 03:12:25;;;;;;;2.65;1.77;;;;;;;;;;5050299;28;20024;-64
2023/05/01 03:14:50;;;;;;;2.40;1.63;;;;;;;;;;5080539;28;20023;-67
2023/05/01 03:17:15;;;;;;;3.10;2.10;;;;;;;;;;5046579;28;20024;-63
2023/05/01 03:19:41;;;;;;;2.53;1.70;;;;;;;;;;5062532;28;20872;-68
2023/05/01 03:22:06;;;;;;;2.40;1.60;;;;;;;;;;5067382;28;20618;-64
2023/05/01 03:24:31;;;;;;;2.57;1.73;;;;;;;;;;5083323;28;20004;-66
2023/05/01 03:26:57;;;;;;;2.67;1.90;;;;;;;;;;5082967;28;20627;-59
2023/05/01 03:29:23;;;;;;;2.65;1.77;;;;;;;;;;5078332;28;20024;-60
2023/05/01 03:31:48;;;;;;;3.57;1.60;;;;;;;;;;5051662;28;20498;-64
2023/05/01 03:34:13;;;;;;;3.08;1.60;;;;;;;;;;5077483;28;20274;-61
2023/05/01 03:36:39;;;;;;;2.70;1.57;;;;;;;;;;5056523;28;20103;-62
2023/05/01 03:39:04;;;;;;;1.80;1.60;;;;;;;;;;5060955;28;20262;-65
2023/05/01 03:41:29;;;;;;;2.50;1.80;;;;;;;;;;5076235;28;20011;-65
2023/05/01 03:43:55;;;;;;;3.10;1.58;;;;;;;;;;5060451;28;20016;-64
2023/05/01 03:46:20;;;;;;;3.20;1.60;;;;;;;;;;5080108;28;20115;-68
2023/05/01 03:48:45;;;;;;;2.88;1.80;;;;;;;;;;5054501;28;20431;-65
2023/05/01 03:51:11;;;;;;;2.20;1.47;;;;;;;;;;5055837;28;20020;-65
2023/05/01 03:53:36;;;;;;;2.47;1.80;;;;;;;;;;5063735;28;20293;-68
2023/05/01 03:56:03;;;;;;;2.43;1.70;;;;;;;;;;5059946;28;20274;-64
2023/05/01 03:58:28;;;;;;;2.67;1.83;;;;;;;;;;5071610;28;20298;-63
2023/05/01 04:00:55;;;;;;;3.05;1.95;;;;;;;;;;5075683;28;20058;-67
2023/05/01 04:03:20;;;;;;;2.08;1.60;;;;;;;;;;5070273;28;20016;-61
2023/05/01 04:05:46;;;;;;;2.93;1.80;;;;;;;;;;5074686;28;20021;-63
2023/05/01 04:08:11;;;;;;;2.17;1.73;;;;;;;;;;5056448;28;20127;-64
2023/05/01 04:10:36;;;;;;;1.90;1.60;;;;;;;;;;5065777;28;20290;-62
2023/05/01 04:13:01;;;;;;;2.30;1.60;;;;;;;;;;5065545;28;20537;-66
2023/05/01 04:15:27;;;;;;;1.85;1.50;;;;;;;;;;5064770;28;20457;-64
2023/05/01 04:17:54;;;;;;;2.97;1.67;;;;;;;;;;5066500;28;20048;-66
2023/05/01 04:20:19;;;;;;;2.25;1.63;;;;;;;;;;5068480;28;20212;-65
2023/05/01 04:22:45;;;;;;;2.53;1.80;;;;;;;;;;5069639;28;20382;-62
2023/05/01 04:25:10;;;;;;;2.58;1.67;;;;;;;;;;5066404;28;20048;-67
2023/05/01 04:27:35;;;;;;;1.83;1.40;;;;;;;;;;5063295;28;20131;-68
2023/05/01 04:30:01;;;;;;;1.90;1.50;;;;;;;;;;5057889;28;20028;-65
2023/05/01 04:32:26;;;;;;;2.38;1.55;;;;;;;;;;5062207;28;20821;-62
2023/05/01 04:34:52;;;;;;;2.17;1.57;;;;;;;;;;5061228;28;20032;-64
2023/05/01 04:37:17;;;;;;;2.35;1.90;;;;;;;;;;5065759;28;20269;-67
2023/05/01 04:39:43;;;;;;;3.53;1.65;;;;;;;;;;5072777;28;20096;-67
2023/05/01 04:42:08;;;;;;;2.05;1.67;;;;;;;;;;5073682;28;20389;-65
2023/05/01 04:44:35;;;;;;;2.27;1.67;;;;;;;;;;5063592;28;20032;-72
2023/05/01 04:47:04;;;;;;;1.98;1.60;;;;;;;;;;5067262;28;20266;-65
2023/05/01 04:49:29;;;;;;;2.50;1.90;;;;;;;;;;5054833;28;20042;-67
2023/05/01 04:51:55;;;;;;;1.88;1.65;;;;;;;;;;5070720;28;20040;-64
2023/05/01 04:54:21;;;;;;;2.10;1.45;;;;;;;;;;5062396;28;20447;-66
2023/05/01 04:56:46;;;;;;;2.10;1.80;;;;;;;;;;5081241;28;20032;-64
2023/05/01 04:59:12;;;;;;;3.40;1.60;;;;;;;;;;5061591;28;20029;-66
2023/05/01 05:01:37;;;;;;;2.13;1.70;;;;;;;;;;5086024;28;20278;-67
2023/05/01 05:04:02;;;;;;;2.10;1.60;;;;;;;;;;5073525;28;20135;-61
2023/05/01 05:06:27;;;;;;;5.63;1.83;;;;;;;;;;5070106;28;20350;-70
2023/05/01 05:08:53;;;;;;;2.20;1.70;;;;;;;;;;5087461;28;20043;-62
2023/05/01 05:11:18;;;;;;;2.27;1.63;;;;;;;;;;5089489;28;20438;-69
2023/05/01 05:13:43;;;;;;;3.57;2.10;;;;;;;;;;5087194;28;20298;-70
2023/05/01 05:16:09;;;;;;;2.85;1.88;;;;;;;;;;5087404;28;20373;-64
2023/05/01 05:18:34;;;;;;;2.28;1.75;;;;;;;;;;5088806;28;20044;-68
2023/05/01 05:21:02;;;;;;;2.37;1.80;;;;;;;;;;5066692;28;20124;-63
2023/05/01 05:23:27;;;;;;;3.10;2.00;;;;;;;;;;5071494;28;20282;-67
2023/05/01 05:25:52;;;;;;;2.50;1.83;;;;;;;;;;5066479;28;20025;-66
2023/05/01 05:28:18;;;;;;;2.53;1.73;;;;;;;;;;5078900;28;20136;-61
2023/05/01 05:30:43;;;;;;;1.98;1.60;;;;;;;;;;5079103;28;20115;-66
2023/05/01 05:33:08;;;;;;;2.83;1.80;;;;;;;;;;5087817;28;20060;-71
2023/05/01 05:35:33;;;;;;;4.30;2.08;;;;;;;;;;5089107;28;20500;-71
2023/05/01 05:37:59;;;;;;;2.30;1.60;;;;;;;;;;5088646;28;20159;-66
2023/05/01 05:40:24;;;;;;;3.60;2.00;;;;;;;;;;5071128;28;20315;-68
2023/05/01 05:42:49;;;;;;;2.53;1.88;;;;;;;;;;5085899;28;20445;-70
2023/05/01 05:45:15;;;;;;;3.55;1.83;;;;;;;;;;5064448;28;20032;-69
2023/05/01 05:47:40;;;;;;;2.10;1.60;;;;;;;;;;5072278;28;20047;-61
2023/05/01 05:50:06;;;;;;;2.93;1.70;;;;;;;;;;5063142;28;20592;-66
2023/05/01 05:52:31;;;;;;;2.28;1.65;;;;;;;;;;5062363;28;20521;-58
2023/05/01 05:54:56;;;;;;;2.78;1.70;;;;;;;;;;5071159;28;20115;-69
2023/05/01 05:57:22;;;;;;;2.73;1.60;;;;;;;;;;5067888;28;20556;-65
2023/05/01 05:59:47;;;;;;;2.63;1.80;;;;;;;;;;5064042;28;20270;-62
2023/05/01 06:02:12;;;;;;;2.73;1.90;;;;;;;;;;5063471;28;20287;-69
2023/05/01 06:04:37;;;;;;;2.47;1.70;;;;;;;;;;5075469;28;20281;-69
2023/05/01 06:07:05;;;;;;;2.23;1.80;;;;;;;;;;5065396;28;20461;-69
2023/05/01 06:09:30;;;;;;;2.17;1.50;;;;;;;;;;5062086;28;20303;-64
2023/05/01 06:11:55;;;;;;;3.03;1.73;;;;;;;;;;5065259;28;20542;-68
2023/05/01 06:14:21;;;;;;;2.88;1.63;;;;;;;;;;5048863;28;20051;-66
2023/05/01 06:16:46;;;;;;;2.27;1.70;;;;;;;;;;5078438;28;20583;-72
2023/05/01 06:19:11;;;;;;;2.30;1.80;;;;;;;;;;5061232;28;20428;-59
2023/05/01 06:21:36;;;;;;;2.70;1.80;;;;;;;;;;5053949;28;20383;-64
2023/05/01 06:24:02;;;;;;;2.95;1.70;;;;;;;;;;5078726;28;20290;-70
2023/05/01 06:26:27;;;;;;;2.13;1.60;;;;;;;;;;5057507;28;20089;-65
2023/05/01 06:28:53;;;;;;;1.70;1.40;;;;;;;;;;5072757;28;20513;-66
2023/05/01 06:31:18;;;;;;;3.60;1.80;;;;;;;;;;5058094;28;20044;-63
2023/05/01 06:33:44;;;;;;;2.92;2.00;;;;;;;;;;5075337;28;20965;-67
2023/05/01 06:36:09;;;;;;;2.17;1.67;;;;;;;;;;5072071;28;20058;-65
2023/05/01 06:38:34;;;;;;;2.10;1.75;;;;;;;;;;5082772;28;20141;-70
2023/05/01 06:40:59;;;;;;;2.15;1.60;;;;;;;;;;5078579;28;20041;-72
2023/05/01 06:43:29;;;;;;;2.37;1.70;;;;;;;;;;5072365;28;20039;-72
2023/05/01 06:45:55;;;;;;;2.53;1.70;;;;;;;;;;5079587;28;20291;-62
2023/05/01 06:48:20;;;;;;;3.80;1.92;;;;;;;;;;5084787;28;20043;-60
2023/05/01 06:50:45;;;;;;;2.58;1.90;;;;;;;;;;5077600;28;20587;-67
2023/05/01 06:53:11;;;;;;;3.07;2.00;;;;;;;;;;5066777;28;20054;-61
2023/05/01 06:55:36;;;;;;;2.70;1.80;;;;;;;;;;5061709;28;20310;-63
2023/05/01 06:58:02;;;;;;;4.43;1.73;;;;;;;;;;5064631;28;20286;-67
2023/05/01 07:00:27;;;;;;;3.10;1.90;;;;;;;;;;5065456;28;20275;-59
2023/05/01 07:02:52;;;;;;;2.67;1.70;;;;;;;;;;5077408;28;20083;-69
2023/05/01 07:05:17;;;;;;;3.15;1.73;;;;;;;;;;5075287;28;20032;-70
2023/05/01 07:07:43;;;;;;;2.83;1.93;;;;;;;;;;5085948;28;20555;-72
2023/05/01 07:10:08;;;;;;;2.58;1.73;;;;;;;;;;5067706;28;20282;-70
2023/05/01 07:12:33;;;;;;;2.95;1.92;;;;;;;;;;5063787;28;20103;-70
2023/05/01 07:14:59;;;;;;;3.10;1.80;;;;;;;;;;5065630;28;20084;-63
2023/05/01 07:17:25;;;;;;;2.28;1.80;;;;;;;;;;5066091;28;20278;-70
2023/05/01 07:19:50;;;;;;;2.55;1.70;;;;;;;;;;5078661;28;20502;-72
2023/05/01 07:22:16;;;;;;;2.97;1.60;;;;;;;;;;5078860;28;20085;-70
2023/05/01 07:24:41;;;;;;;2.27;1.93;;;;;;;;;;5082495;28;20466;-61
2023/05/01 07:27:06;;;;;;;2.37;1.67;;;;;;;;;;5064733;28;20293;-66
2023/05/01 07:29:32;;;;;;;2.72;1.85;;;;;;;;;;5080481;28;20389;-66
2023/05/01 07:31:57;;;;;;;2.47;1.50;;;;;;;;;;5082032;28;20415;-64
2023/05/01 07:34:22;;;;;;;2.50;1.83;;;;;;;;;;5065448;28;20070;-65
2023/05/01 07:36:47;;;;;;;2.92;1.80;;;;;;;;;;5081252;28;20036;-67
2023/05/01 07:39:13;;;;;;;2.97;2.10;;;;;;;;;;5065165;28;20051;-63
2023/05/01 07:41:38;;;;;;;2.58;1.90;;;;;;;;;;5081510;28;20368;-69
2023/05/01 07:44:04;;;;;;;2.20;1.80;;;;;;;;;;5064535;28;20512;-59
2023/05/01 07:46:29;;;;;;;3.80;2.00;;;;;;;;;;5064104;28;20553;-61
2023/05/01 07:48:54;;;;;;;3.00;2.05;;;;;;;;;;5071032;28;20080;-68
2023/05/01 07:51:20;;;;;;;7.68;4.30;;;;;;;;;;5085917;28;20115;-71
2023/05/01 07:53:46;;;;;;;6.22;4.13;;;;;;;;;;5070137;28;20474;-63
2023/05/01 07:56:11;;;;;;;5.18;3.65;;;;;;;;;;5067651;28;20032;-62
2023/05/01 07:58:36;;;;;;;6.05;4.13;;;;;;;;;;5073405;28;20040;-67
2023/05/01 08:01:02;;;;;;;10.68;6.53;;;;;;;;;;5068742;28;20051;-66
2023/05/01 08:03:28;;;;;;;6.13;4.53;;;;;;;;;;5073165;28;20028;-62
2023/05/01 08:05:53;;;;;;;5.22;4.50;;;;;;;;;;5078276;28;20127;-61
2023/05/01 08:08:20;;;;;;;5.57;4.18;;;;;;;;;;5073001;28;20115;-71
2023/05/01 08:10:46;;;;;;;7.43;4.10;;;;;;;;;;5060807;28;20056;-63
2023/05/01 08:13:11;;;;;;;9.15;5.07;;;;;;;;;;5058471;28;20055;-69
2023/05/01 08:15:37;;;;;;;6.57;4.25;;;;;;;;;;5054964;28;20131;-65
2023/05/01 08:18:03;;;;;;;5.05;4.32;;;;;;;;;;5057840;28;20049;-72
2023/05/01 08:20:28;;;;;;;4.20;3.45;;;;;;;;;;5071160;28;20111;-72
2023/05/01 08:22:53;;;;;;;4.60;3.63;;;;;;;;;;5070187;28;20043;-70
2023/05/01 08:25:19;;;;;;;8.48;4.50;;;;;;;;;;5067991;28;20043;-67
2023/05/01 08:27:44;;;;;;;6.57;3.90;;;;;;;;;;5075798;28;20071;-62
2023/05/01 08:30:09;;;;;;;7.22;4.20;;;;;;;;;;5066219;28;20075;-63
2023/05/01 08:32:35;;;;;;;5.65;4.00;;;;;;;;;;5058581;28;20058;-64
2023/05/01 08:35:00;;;;;;;6.17;3.90;;;;;;;;;;5084800;28;20113;-60
2023/05/01 08:37:26;;;;;;;4.82;3.50;;;;;;;;;;5062399;28;20363;-70
2023/05/01 08:39:51;;;;;;;4.70;3.10;;;;;;;;;;5075899;28;20458;-65
2023/05/01 08:42:16;;;;;;;6.00;2.77;;;;;;;;;;5069548;28;20068;-65
2023/05/01 08:44:42;;;;;;;5.20;3.13;;;;;;;;;;5064267;28;20862;-71
2023/05/01 08:47:07;;;;;;;5.18;3.13;;;;;;;;;;5083544;28;20119;-70
2023/05/01 08:49:33;;;;;;;6.23;3.17;;;;;;;;;;5081639;28;20062;-67
2023/05/01 08:51:58;;;;;;;4.18;2.55;;;;;;;;;;5060443;28;20055;-70
2023/05/01 08:54:24;;;;;;;3.60;2.67;;;;;;;;;;5064531;28;20051;-76
2023/05/01 08:56:50;;;;;;;3.45;2.67;;;;;;;;;;5052530;28;20433;-62
2023/05/01 08:59:15;;;;;;;2.80;2.20;;;;;;;;;;5069615;28;20544;-71
2023/05/01 09:01:40;;;;;;;4.73;2.70;;;;;;;;;;5061962;28;20429;-63
2023/05/01 09:04:06;;;;;;;4.60;2.50;;;;;;;;;;5062488;28;20297;-69
2023/05/01 09:06:31;;;;;;;3.38;2.45;;;;;;;;;;5049981;28;20539;-71
2023/05/01 09:08:57;;;;;;;5.18;2.15;;;;;;;;;;5076739;28;20066;-62
2023/05/01 09:11:22;;;;;;;4.22;2.00;;;;;;;;;;5080558;28;20035;-63
2023/05/01 09:13:47;;;;;;;3.57;2.10;;;;;;;;;;5081129;28;20721;-77
2023/05/01 09:16:12;;;;;;;2.90;2.50;;;;;;;;;;5080697;28;20293;-72
2023/05/01 09:18:38;;;;;;;3.93;2.30;;;;;;;;;;5081462;28;20374;-68
2023/05/01 09:21:04;;;;;;;4.78;2.65;;;;;;;;;;5080121;28;20332;-73
2023/05/01 09:23:30;;;;;;;4.22;2.30;;;;;;;;;;5081046;28;20044;-58
2023/05/01 09:25:55;;;;;;;3.38;1.80;;;;;;;;;;5073045;28;20033;-66
2023/05/01 09:28:38;;;;;;;3.57;2.00;;;;;;;;;;5063359;28;20449;-63
2023/05/01 09:31:12;;;;;;;4.53;2.10;;;;;;;;;;5071534;28;20288;-78
2023/05/01 09:33:40;;;;;;;3.20;1.90;;;;;;;;;;5067907;28;20067;-66
2023/05/01 09:36:05;;;;;;;3.50;1.80;;;;;;;;;;5063751;28;20040;-76
2023/05/01 09:38:31;;;;;;;3.05;1.80;;;;;;;;;;5078888;28;20063;-70
2023/05/01 09:41:02;;;;;;;2.30;1.90;;;;;;;;;;5085874;28;20538;-68
2023/05/01 09:43:28;;;;;;;2.13;1.70;;;;;;;;;;5084404;28;20282;-70
2023/05/01 09:46:00;;;;;;;3.30;1.95;;;;;;;;;;5081328;28;20082;-60
2023/05/01 09:48:25;;;;;;;3.55;1.90;;;;;;;;;;5063973;28;20041;-66
2023/05/01 09:50:50;;;;;;;3.87;1.90;;;;;;;;;;5065060;28;20102;-70
2023/05/01 09:53:16;;;;;;;2.53;1.90;;;;;;;;;;5064078;28;20052;-73
2023/05/01 09:55:41;;;;;;;3.03;1.75;;;;;;;;;;5077789;28;20044;-65
2023/05/01 09:58:06;;;;;;;2.63;1.60;;;;;;;;;;5053375;28;20032;-63
2023/05/01 10:00:32;;;;;;;3.30;1.80;;;;;;;;;;5054262;28;20313;-67
2023/05/01 10:02:57;;;;;;;2.75;1.60;;;;;;;;;;5073169;28;20291;-61
2023/05/01 10:05:23;;;;;;;3.55;1.60;;;;;;;;;;5070767;28;20128;-66
2023/05/01 10:07:58;;;;;;;4.05;1.70;;;;;;;;;;5070135;28;20036;-68
2023/05/01 10:10:24;;;;;;;3.78;1.30;;;;;;;;;;5058745;28;20504;-70
2023/05/01 10:12:49;;;;;;;5.18;2.35;;;;;;;;;;5071076;28;20040;-58
2023/05/01 10:15:15;;;;;;;10.65;3.30;;;;;;;;;;5080504;28;20029;-66
2023/05/01 10:17:40;;;;;;;9.02;3.40;;;;;;;;;;5067259;28;20119;-71
2023/05/01 10:20:06;;;;;;;6.90;3.15;;;;;;;;;;5067257;28;20056;-74
2023/05/01 10:22:32;;;;;;;5.68;2.70;;;;;;;;;;5073145;28;20519;-68
2023/05/01 10:24:58;;;;;;;6.07;2.30;;;;;;;;;;5066863;28;20060;-72
2023/05/01 10:27:23;;;;;;;3.85;2.00;;;;;;;;;;5072906;28;20040;-71
2023/05/01 10:29:49;;;;;;;5.43;2.22;;;;;;;;;;5071291;28;20055;-63
2023/05/01 10:32:15;;;;;;;4.47;2.15;;;;;;;;;;5069201;28;20064;-63
2023/05/01 10:34:44;;;;;;;3.67;2.40;;;;;;;;;;5071113;28;20016;-70
2023/05/01 10:37:11;;;;;;;6.40;2.35;;;;;;;;;;5064765;28;20263;-68
2023/05/01 10:39:37;;;;;;;6.93;2.10;;;;;;;;;;5065743;28;20103;-63
2023/05/01 10:42:03;;;;;;;3.73;2.10;;;;;;;;;;5072278;28;20107;-68
2023/05/01 10:44:28;;;;;;;2.40;1.50;;;;;;;;;;5067820;28;20012;-69
2023/05/01 10:46:53;;;;;;;2.27;1.70;;;;;;;;;;5071979;28;20036;-68
2023/05/01 10:49:19;;;;;;;3.47;1.90;;;;;;;;;;5075807;28;20301;-69
2023/05/01 10:51:57;;;;;;;5.38;2.25;;;;;;;;;;5051977;28;20443;-59
2023/05/01 10:54:40;;;;;;;4.13;2.15;;;;;;;;;;5074370;28;20087;-63
2023/05/01 10:57:05;;;;;;;4.65;2.08;;;;;;;;;;5067003;28;20036;-71
2023/05/01 10:59:49;;;;;;;3.75;2.20;;;;;;;;;;5069071;28;20415;-68
2023/05/01 11:02:21;;;;;;;5.00;2.00;;;;;;;;;;5071690;28;20036;-70
2023/05/01 11:07:21;;;;;;;2.70;2.00;;;;;;;;;;5052084;28;20068;-61
2023/05/01 11:09:53;;;;;;;4.15;2.10;;;;;;;;;;5025484;28;20033;-60
2023/05/01 11:12:37;;;;;;;3.17;1.73;;;;;;;;;;5060006;28;20025;-62
2023/05/01 11:15:04;;;;;;;2.25;1.63;;;;;;;;;;5060445;28;20131;-61
2023/05/01 11:17:38;;;;;;;4.93;2.17;;;;;;;;;;5021155;28;20703;-64
2023/05/01 11:20:06;;;;;;;4.07;1.80;;;;;;;;;;5056045;28;20132;-65
2023/05/01 11:22:35;;;;;;;3.95;1.88;;;;;;;;;;5038509;28;20138;-65
2023/05/01 11:25:03;;;;;;;2.75;1.80;;;;;;;;;;5020851;28;20234;-60
2023/05/01 11:27:29;;;;;;;3.22;1.90;;;;;;;;;;5024671;28;20063;-62
2023/05/01 11:29:54;;;;;;;2.60;1.88;;;;;;;;;;5021129;28;20123;-61
2023/05/01 11:32:23;;;;;;;3.95;2.00;;;;;;;;;;5017767;28;20599;-64
2023/05/01 11:34:50;;;;;;;2.50;1.90;;;;;;;;;;5032138;28;20409;-60
2023/05/01 11:37:15;;;;;;;1.92;1.50;;;;;;;;;;5036586;28;20044;-66
2023/05/01 11:39:47;;;;;;;2.33;1.73;;;;;;;;;;5037884;28;20040;-62
2023/05/01 11:42:12;;;;;;;2.75;1.73;;;;;;;;;;5037967;28;20535;-67
2023/05/01 11:44:38;;;;;;;3.10;1.77;;;;;;;;;;5022549;28;20028;-65
2023/05/01 11:47:06;;;;;;;3.10;1.85;;;;;;;;;;5013693;28;20922;-62
2023/05/01 11:49:31;;;;;;;3.25;1.75;;;;;;;;;;5032108;28;20101;-65
2023/05/01 11:51:57;;;;;;;2.90;1.70;;;;;;;;;;5018599;28;20042;-64
2023/05/01 11:54:22;;;;;;;2.95;1.80;;;;;;;;;;5038067;28;20166;-68
2023/05/01 11:56:47;;;;;;;3.25;1.70;;;;;;;;;;5019578;28;20043;-65
2023/05/01 11:59:16;;;;;;;5.25;1.98;;;;;;;;;;5022089;28;20047;-66
2023/05/01 12:01:43;;;;;;;3.38;1.73;;;;;;;;;;5020035;28;20044;-65
2023/05/01 12:04:08;;;;;;;4.30;1.50;;;;;;;;;;5048969;28;20283;-58
2023/05/01 12:06:34;;;;;;;2.40;1.55;;;;;;;;;;5031482;28;20187;-66
2023/05/01 12:09:00;;;;;;;2.00;1.55;;;;;;;;;;5051453;28;20511;-60
2023/05/01 12:11:26;;;;;;;2.95;1.58;;;;;;;;;;5043245;28;20060;-61
2023/05/01 12:13:51;;;;;;;2.95;1.70;;;;;;;;;;5040139;28;20035;-68
2023/05/01 12:16:17;;;;;;;3.13;1.70;;;;;;;;;;5040699;28;20035;-64
2023/05/01 12:18:42;;;;;;;3.63;1.60;;;;;;;;;;5038050;28;20028;-69
2023/05/01 12:21:11;;;;;;;1.98;1.40;;;;;;;;;;5043621;28;20243;-61
2023/05/01 12:23:36;;;;;;;2.37;1.53;;;;;;;;;;5042082;28;20456;-62
2023/05/01 12:26:14;;;;;;;2.27;1.43;;;;;;;;;;5041590;28;20058;-67
2023/05/01 12:28:51;;;;;;;2.97;1.40;;;;;;;;;;5040186;28;20760;-65
2023/05/01 12:31:16;;;;;;;2.20;1.50;;;;;;;;;;5055146;28;20033;-60
2023/05/01 12:33:51;;;;;;;2.30;1.73;;;;;;;;;;5039355;28;20110;-68
2023/05/01 12:36:16;;;;;;;1.90;1.40;;;;;;;;;;5040248;28;20492;-62
2023/05/01 12:38:51;;;;;;;3.55;1.65;;;;;;;;;;5041573;28;20063;-63
2023/05/01 12:41:16;;;;;;;2.63;1.63;;;;;;;;;;5041307;28;20044;-61
2023/05/01 12:43:41;;;;;;;4.50;1.45;;;;;;;;;;5048985;28;20465;-65
2023/05/01 12:46:12;;;;;;;1.70;1.23;;;;;;;;;;5049863;28;21006;-66
2023/05/01 12:48:38;;;;;;;1.60;1.30;;;;;;;;;;5057933;28;20298;-67
2023/05/01 12:51:03;;;;;;;2.28;1.45;;;;;;;;;;5037758;28;20037;-61
2023/05/01 12:53:29;;;;;;;2.20;1.23;;;;;;;;;;5032464;28;21084;-63
2023/05/01 12:55:55;;;;;;;2.15;1.20;;;;;;;;;;5039111;28;20453;-65
2023/05/01 12:58:20;;;;;;;1.58;1.00;;;;;;;;;;5033792;28;20032;-63
2023/05/01 13:00:52;;;;;;;2.25;1.02;;;;;;;;;;5038470;28;20040;-63
2023/05/01 13:03:21;;;;;;;2.58;1.40;;;;;;;;;;5034249;28;20044;-70
2023/05/01 13:05:50;;;;;;;2.50;1.45;;;;;;;;;;5039671;28;20053;-70
2023/05/01 13:08:21;;;;;;;2.75;1.20;;;;;;;;;;5043561;28;20053;-65
2023/05/01 13:10:46;;;;;;;2.60;1.40;;;;;;;;;;5050654;28;20087;-69
2023/05/01 13:13:12;;;;;;;1.92;1.13;;;;;;;;;;5039517;28;20078;-69
2023/05/01 13:15:37;;;;;;;1.87;1.30;;;;;;;;;;5041738;28;20049;-66
2023/05/01 13:18:03;;;;;;;2.13;1.30;;;;;;;;;;5043647;28;20352;-63
2023/05/01 13:20:29;;;;;;;2.53;1.23;;;;;;;;;;5045060;28;20399;-67
2023/05/01 13:22:54;;;;;;;2.05;1.25;;;;;;;;;;5050605;28;20119;-63
2023/05/01 13:25:20;;;;;;;2.92;1.15;;;;;;;;;;5041403;28;20886;-64
2023/05/01 13:27:52;;;;;;;2.58;1.50;;;;;;;;;;5035373;28;20558;-68
2023/05/01 13:30:18;;;;;;;1.83;1.23;;;;;;;;;;5067489;28;20054;-64
2023/05/01 13:32:44;;;;;;;2.20;1.10;;;;;;;;;;5067814;28;20047;-69
2023/05/01 13:35:09;;;;;;;1.60;1.02;;;;;;;;;;5033317;28;20028;-70
2023/05/01 13:37:34;;;;;;;2.70;1.23;;;;;;;;;;5039308;28;21230;-59
2023/05/01 13:40:00;;;;;;;3.00;1.25;;;;;;;;;;5035247;28;20085;-64
2023/05/01 13:42:25;;;;;;;1.92;1.13;;;;;;;;;;5036733;28;20076;-63
2023/05/01 13:44:52;;;;;;;2.45;1.45;;;;;;;;;;5029766;28;21020;-66
2023/05/01 13:47:17;;;;;;;2.45;1.10;;;;;;;;;;5065663;28;20051;-63
2023/05/01 13:49:43;;;;;;;2.25;1.25;;;;;;;;;;5036884;28;20040;-67
2023/05/01 13:52:14;;;;;;;1.63;1.10;;;;;;;;;;5029403;28;20036;-69
2023/05/01 13:54:43;;;;;;;2.30;1.10;;;;;;;;;;5066293;28;20086;-68
2023/05/01 13:57:08;;;;;;;2.28;1.38;;;;;;;;;;5048195;28;20036;-65
2023/05/01 13:59:44;;;;;;;2.90;1.50;;;;;;;;;;5035894;28;20810;-59
2023/05/01 14:02:20;;;;;;;2.20;1.10;;;;;;;;;;5032357;28;20041;-63
2023/05/01 14:04:46;;;;;;;1.92;1.17;;;;;;;;;;5047575;28;20546;-68
2023/05/01 14:07:16;;;;;;;1.80;1.00;;;;;;;;;;5017998;28;20045;-67
2023/05/01 14:09:41;;;;;;;4.00;1.30;;;;;;;;;;5031152;28;20224;-64
2023/05/01 14:12:06;;;;;;;1.90;1.38;;;;;;;;;;5045123;28;20483;-61
2023/05/01 14:14:32;;;;;;;1.85;1.20;;;;;;;;;;5031509;28;20114;-62
2023/05/01 14:16:57;;;;;;;1.70;1.20;;;;;;;;;;5015884;28;20037;-64
2023/05/01 14:19:22;;;;;;;1.65;1.05;;;;;;;;;;5017839;28;20048;-63
2023/05/01 14:21:48;;;;;;;2.45;1.05;;;;;;;;;;5025355;28;20068;-63
2023/05/01 14:24:14;;;;;;;1.73;1.08;;;;;;;;;;5043318;28;20063;-61
2023/05/01 14:26:41;;;;;;;3.15;1.02;;;;;;;;;;5043218;28;20083;-60
2023/05/01 14:29:07;;;;;;;2.63;1.35;;;;;;;;;;5016258;28;20572;-61
2023/05/01 14:31:32;;;;;;;2.05;1.30;;;;;;;;;;5016064;28;20021;-61
2023/05/01 14:33:58;;;;;;;3.47;1.17;;;;;;;;;;5029691;28;20503;-63
2023/05/01 14:36:24;;;;;;;5.78;1.23;;;;;;;;;;5033574;28;20154;-62
2023/05/01 14:38:49;;;;;;;3.97;1.20;;;;;;;;;;5033021;28;20032;-66
2023/05/01 14:41:20;;;;;;;3.45;1.20;;;;;;;;;;5042456;28;20082;-62